Time;durP1;ratioP1;P1;durP2;ratioP2;P2;SDS_P1;SDS_P2;PMS_P1;PMS_P2;Temp;Humidity;BMP_temperature;BMP_pressure;BME280_temperature;BME280_humidity;BME280_pressure;Samples;Min_cycle;Max_cycle;Signal;HPM_P1;HPM_P2
2022/10/17 00:00:05;;;;;;;9.23;5.47;;;;;;;14.98;100.00;100939.84;697595;28;1201;-65
2022/10/17 00:00:26;;;;;;;7.53;5.10;;;;;;;14.98;100.00;100935.47;697664;28;1049;-65
2022/10/17 00:00:47;;;;;;;6.68;4.97;;;;;;;14.97;100.00;100935.50;696837;28;940;-64
2022/10/17 00:01:09;;;;;;;5.85;4.78;;;;;;;14.96;100.00;100942.50;697244;28;4456;-64
2022/10/17 00:01:29;;;;;;;5.95;4.90;;;;;;;14.99;100.00;100936.31;698061;28;1139;-64
2022/10/17 00:01:50;;;;;;;6.87;4.77;;;;;;;15.00;100.00;100932.81;697031;28;1076;-64
2022/10/17 00:02:10;;;;;;;6.85;4.75;;;;;;;15.01;100.00;100933.66;697712;28;1251;-64
2022/10/17 00:02:31;;;;;;;6.20;4.83;;;;;;;15.01;100.00;100937.19;696608;28;1106;-64
2022/10/17 00:02:54;;;;;;;5.93;4.50;;;;;;;15.02;100.00;100938.03;697737;28;1063;-64
2022/10/17 00:03:15;;;;;;;8.20;5.35;;;;;;;14.98;100.00;100935.47;697986;28;1053;-64
2022/10/17 00:03:36;;;;;;;9.27;5.05;;;;;;;14.97;100.00;100941.63;696933;28;1071;-64
2022/10/17 00:03:57;;;;;;;7.47;4.85;;;;;;;14.96;100.00;100936.38;696325;28;4381;-64
2022/10/17 00:04:17;;;;;;;9.07;5.03;;;;;;;14.96;100.00;100931.97;696765;28;1067;-64
2022/10/17 00:04:37;;;;;;;6.80;5.20;;;;;;;15.00;100.00;100934.56;696395;28;1079;-65
2022/10/17 00:04:58;;;;;;;7.78;5.38;;;;;;;15.02;100.00;100935.41;697871;28;1323;-64
2022/10/17 00:05:18;;;;;;;6.63;5.00;;;;;;;14.99;100.00;100931.06;698361;28;1060;-64
2022/10/17 00:05:47;;;;;;;6.67;4.70;;;;;;;14.98;100.00;100929.31;697549;28;1145;-63
2022/10/17 00:06:11;;;;;;;7.20;4.47;;;;;;;14.95;100.00;100929.38;697558;28;976;-64
2022/10/17 00:06:31;;;;;;;7.60;4.55;;;;;;;14.92;100.00;100930.31;697198;28;1906;-63
2022/10/17 00:06:51;;;;;;;7.63;4.90;;;;;;;14.92;100.00;100925.03;697398;28;4519;-64
2022/10/17 00:07:12;;;;;;;7.35;4.88;;;;;;;14.91;100.00;100927.69;698166;28;1236;-65
2022/10/17 00:07:32;;;;;;;7.50;4.90;;;;;;;14.92;100.00;100930.31;697358;28;1126;-64
2022/10/17 00:07:53;;;;;;;7.18;4.97;;;;;;;14.94;100.00;100932.94;698037;28;1075;-65
2022/10/17 00:08:15;;;;;;;7.30;5.03;;;;;;;14.93;100.00;100926.78;697979;28;1150;-64
2022/10/17 00:08:37;;;;;;;7.55;5.53;;;;;;;14.93;100.00;100921.50;697730;28;1078;-65
2022/10/17 00:08:57;;;;;;;6.35;4.80;;;;;;;14.96;100.00;100936.38;698172;28;1304;-64
2022/10/17 00:09:17;;;;;;;7.37;4.97;;;;;;;14.97;100.00;100928.47;697830;28;1083;-65
2022/10/17 00:09:41;;;;;;;7.87;4.83;;;;;;;14.99;100.00;100931.06;698221;28;1317;-66
2022/10/17 00:10:02;;;;;;;8.80;5.10;;;;;;;15.01;100.00;100933.66;697639;28;4826;-65
2022/10/17 00:10:23;;;;;;;7.85;4.97;;;;;;;15.01;100.00;100931.03;696985;28;1245;-64
2022/10/17 00:10:44;;;;;;;6.22;4.88;;;;;;;15.03;100.00;100931.88;699470;28;1255;-64
2022/10/17 00:11:07;;;;;;;7.60;5.03;;;;;;;15.04;100.00;100936.25;697012;28;1190;-64
2022/10/17 00:11:28;;;;;;;6.40;4.65;;;;;;;15.02;100.00;100935.41;697012;28;1010;-65
2022/10/17 00:11:48;;;;;;;6.60;4.70;;;;;;;15.01;100.00;100931.03;698618;28;1263;-64
2022/10/17 00:12:09;;;;;;;6.67;5.00;;;;;;;15.01;100.00;100942.44;698211;28;1221;-64
2022/10/17 00:12:30;;;;;;;6.80;5.03;;;;;;;15.04;100.00;100941.53;696941;28;1366;-65
2022/10/17 00:12:51;;;;;;;7.53;5.10;;;;;;;15.10;100.00;100931.72;696538;28;4541;-65
2022/10/17 00:13:12;;;;;;;8.18;5.13;;;;;;;15.11;100.00;100933.47;697486;28;1259;-64
2022/10/17 00:13:33;;;;;;;7.07;4.97;;;;;;;15.10;100.00;100934.34;696900;28;1051;-64
2022/10/17 00:13:55;;;;;;;7.15;4.93;;;;;;;15.10;100.00;100936.13;697544;28;1118;-64
2022/10/17 00:14:15;;;;;;;6.72;4.95;;;;;;;15.10;100.00;100930.84;697233;28;1076;-64
2022/10/17 00:14:36;;;;;;;6.95;4.90;;;;;;;15.09;100.00;100929.13;697142;28;1224;-64
2022/10/17 00:14:56;;;;;;;7.10;4.90;;;;;;;15.09;100.00;100931.75;697587;28;1032;-64
2022/10/17 00:15:19;;;;;;;6.10;4.90;;;;;;;15.07;100.00;100936.19;697012;28;1209;-65
2022/10/17 00:15:42;;;;;;;6.45;4.78;;;;;;;15.08;100.00;100932.66;696618;28;1146;-64
2022/10/17 00:16:03;;;;;;;7.97;4.80;;;;;;;15.13;100.00;100923.78;698604;28;4290;-64
2022/10/17 00:16:27;;;;;;;9.35;4.95;;;;;;;15.16;100.00;100928.13;697411;28;932;-64
2022/10/17 00:16:48;;;;;;;8.18;5.10;;;;;;;15.20;100.00;100931.53;698187;28;1131;-65
2022/10/17 00:17:08;;;;;;;7.10;4.93;;;;;;;15.21;100.00;100920.13;695547;28;1100;-64
2022/10/17 00:17:28;;;;;;;7.65;5.00;;;;;;;15.23;100.00;100932.38;696287;28;1014;-63
2022/10/17 00:17:49;;;;;;;8.03;4.97;;;;;;;15.24;100.00;100935.84;696012;28;1305;-64
2022/10/17 00:18:09;;;;;;;7.77;5.40;;;;;;;15.21;100.00;100930.66;695427;28;1076;-64
2022/10/17 00:18:30;;;;;;;8.13;5.30;;;;;;;15.20;100.00;100934.19;693389;28;1172;-64
2022/10/17 00:18:50;;;;;;;6.17;4.93;;;;;;;15.19;100.00;100927.16;695655;28;4378;-65
2022/10/17 00:19:10;;;;;;;7.00;4.88;;;;;;;15.17;100.00;100927.19;697843;28;1150;-65
2022/10/17 00:19:31;;;;;;;8.70;4.90;;;;;;;15.14;100.00;100929.91;698315;28;1103;-63
2022/10/17 00:19:51;;;;;;;9.43;5.00;;;;;;;15.13;100.00;100926.41;698621;28;1052;-64
2022/10/17 00:20:12;;;;;;;8.43;4.93;;;;;;;15.13;100.00;100928.16;698715;28;1174;-64
2022/10/17 00:20:34;;;;;;;7.90;4.93;;;;;;;15.11;100.00;100929.97;698282;28;1068;-64
2022/10/17 00:20:55;;;;;;;7.07;4.90;;;;;;;15.11;100.00;100932.59;698011;28;1090;-64
2022/10/17 00:21:17;;;;;;;6.65;4.70;;;;;;;15.10;100.00;100925.59;698044;28;1262;-64
2022/10/17 00:21:37;;;;;;;6.68;4.78;;;;;;;15.10;100.00;100921.19;697320;28;1202;-63
2022/10/17 00:21:58;;;;;;;6.90;4.60;;;;;;;15.11;100.00;100925.56;696636;28;4320;-63
2022/10/17 00:22:18;;;;;;;6.00;4.50;;;;;;;15.12;100.00;100929.09;697424;28;1134;-65
2022/10/17 00:22:38;;;;;;;6.93;4.80;;;;;;;15.12;100.00;100924.66;697494;28;1281;-65
2022/10/17 00:22:59;;;;;;;6.85;4.80;;;;;;;15.14;100.00;100932.53;694777;28;1777;-64
2022/10/17 00:23:19;;;;;;;6.20;4.70;;;;;;;15.17;100.00;100934.25;694813;28;1164;-64
2022/10/17 00:23:40;;;;;;;6.88;4.60;;;;;;;15.16;100.00;100936.03;696760;28;1115;-64
2022/10/17 00:24:00;;;;;;;8.90;4.90;;;;;;;15.15;100.00;100934.28;698146;28;1283;-64
2022/10/17 00:24:21;;;;;;;8.70;4.90;;;;;;;15.14;100.00;100925.50;696936;28;1243;-64
2022/10/17 00:24:41;;;;;;;10.30;5.20;;;;;;;15.16;100.00;100933.38;696911;28;1341;-65
2022/10/17 00:25:02;;;;;;;9.33;4.93;;;;;;;15.15;100.00;100932.50;697534;28;4542;-64
2022/10/17 00:25:22;;;;;;;8.77;5.00;;;;;;;15.14;100.00;100932.53;696973;28;1139;-64
2022/10/17 00:25:43;;;;;;;6.63;5.13;;;;;;;15.12;100.00;100927.31;696698;28;1127;-65
2022/10/17 00:26:04;;;;;;;6.50;5.03;;;;;;;15.11;100.00;100933.47;691532;28;1041;-64
2022/10/17 00:26:26;;;;;;;6.88;4.85;;;;;;;15.13;100.00;100933.44;692068;28;1914;-64
2022/10/17 00:26:46;;;;;;;8.65;4.97;;;;;;;15.15;100.00;100935.13;691799;28;1165;-66
2022/10/17 00:27:07;;;;;;;7.47;4.97;;;;;;;15.19;100.00;100935.97;691749;28;1449;-65
2022/10/17 00:27:27;;;;;;;8.20;4.90;;;;;;;15.20;100.00;100942.09;693182;28;1198;-64
2022/10/17 00:27:48;;;;;;;7.17;4.57;;;;;;;15.22;100.00;100942.94;696409;28;1159;-63
2022/10/17 00:28:13;;;;;;;6.53;4.83;;;;;;;15.20;100.00;100935.03;697461;28;4391;-64
2022/10/17 00:28:33;;;;;;;7.85;5.07;;;;;;;15.22;100.00;100940.31;697588;28;1258;-64
2022/10/17 00:28:53;;;;;;;6.68;4.80;;;;;;;15.20;100.00;100929.78;697526;28;1376;-64
2022/10/17 00:29:14;;;;;;;6.80;4.90;;;;;;;15.20;100.00;100934.19;695298;28;1176;-63
2022/10/17 00:29:34;;;;;;;6.35;4.97;;;;;;;15.19;100.00;100938.59;695383;28;1052;-63
2022/10/17 00:29:54;;;;;;;7.67;4.87;;;;;;;15.18;100.00;100936.84;696131;28;1317;-65
2022/10/17 00:30:16;;;;;;;6.60;4.97;;;;;;;15.20;100.00;100934.19;698575;28;1337;-64
2022/10/17 00:30:36;;;;;;;6.50;4.93;;;;;;;15.23;100.00;100931.47;695694;28;1435;-65
2022/10/17 00:30:59;;;;;;;7.33;4.93;;;;;;;15.28;100.00;100930.50;695150;28;4380;-65
2022/10/17 00:31:21;;;;;;;6.78;4.70;;;;;;;15.25;100.00;100937.59;696356;28;1278;-64
2022/10/17 00:31:42;;;;;;;6.70;4.93;;;;;;;15.23;100.00;100939.38;695324;28;1222;-64
2022/10/17 00:32:03;;;;;;;7.25;5.18;;;;;;;15.22;100.00;100935.88;695321;28;1183;-65
2022/10/17 00:32:23;;;;;;;6.50;4.73;;;;;;;15.21;100.00;100936.78;692247;28;1283;-63
2022/10/17 00:32:44;;;;;;;7.20;4.77;;;;;;;15.20;100.00;100931.53;693098;28;1276;-63
2022/10/17 00:33:04;;;;;;;9.32;4.65;;;;;;;15.20;100.00;100935.03;693120;28;1258;-66
2022/10/17 00:33:26;;;;;;;9.77;4.70;;;;;;;15.25;100.00;100933.19;692882;28;969;-65
2022/10/17 00:33:47;;;;;;;6.68;4.70;;;;;;;15.27;100.00;100930.53;693529;28;1199;-65
2022/10/17 00:34:09;;;;;;;7.57;4.97;;;;;;;15.30;100.00;100936.59;691126;28;4359;-64
2022/10/17 00:34:30;;;;;;;8.70;5.07;;;;;;;15.32;100.00;100926.88;693622;28;1493;-64
2022/10/17 00:34:50;;;;;;;7.63;4.50;;;;;;;15.28;100.00;100933.13;695253;28;1461;-64
2022/10/17 00:35:11;;;;;;;8.38;5.05;;;;;;;15.30;100.00;100941.03;692876;28;1384;-63
2022/10/17 00:35:32;;;;;;;9.02;4.90;;;;;;;15.29;100.00;100934.88;692887;28;1131;-63
2022/10/17 00:36:03;;;;;;;7.28;4.60;;;;;;;15.29;100.00;100929.59;693072;28;1103;-63
2022/10/17 00:36:25;;;;;;;8.02;4.75;;;;;;;15.33;100.00;100935.69;696829;28;1051;-64
2022/10/17 00:36:45;;;;;;;8.57;4.93;;;;;;;15.35;100.00;100935.66;697754;28;1202;-65
2022/10/17 00:37:05;;;;;;;6.30;5.10;;;;;;;15.37;100.00;100937.34;698885;28;4239;-64
2022/10/17 00:37:26;;;;;;;6.83;4.90;;;;;;;15.36;100.00;100932.13;697734;28;1243;-64
2022/10/17 00:37:46;;;;;;;6.80;5.03;;;;;;;15.38;100.00;100927.69;697152;28;1182;-64
2022/10/17 00:38:06;;;;;;;7.70;5.20;;;;;;;15.38;100.00;100933.84;697581;28;1146;-65
2022/10/17 00:38:27;;;;;;;6.33;5.03;;;;;;;15.39;100.00;100930.28;698020;28;1259;-65
2022/10/17 00:38:50;;;;;;;6.80;4.90;;;;;;;15.41;100.00;100932.88;699332;28;5127;-64
2022/10/17 00:39:11;;;;;;;6.25;4.82;;;;;;;15.41;100.00;100933.75;696866;28;1223;-65
2022/10/17 00:39:32;;;;;;;6.35;4.60;;;;;;;15.41;100.00;100936.41;693901;28;1294;-64
2022/10/17 00:39:53;;;;;;;7.60;4.67;;;;;;;15.44;100.00;100941.59;690522;28;4429;-64
2022/10/17 00:40:13;;;;;;;7.72;5.05;;;;;;;15.50;100.00;100937.97;691776;28;1359;-65
2022/10/17 00:40:33;;;;;;;9.07;5.37;;;;;;;15.49;100.00;100930.94;692206;28;1502;-64
2022/10/17 00:40:54;;;;;;;7.35;5.03;;;;;;;15.51;100.00;100937.06;692804;28;1310;-63
2022/10/17 00:41:18;;;;;;;7.33;4.80;;;;;;;15.50;100.00;100937.97;695887;28;1210;-64
2022/10/17 00:41:38;;;;;;;7.95;4.70;;;;;;;15.53;100.00;100929.13;698557;28;1289;-64
2022/10/17 00:41:59;;;;;;;5.45;4.63;;;;;;;15.62;100.00;100931.56;696871;28;1107;-64
2022/10/17 00:42:20;;;;;;;7.30;4.68;;;;;;;15.58;100.00;100930.75;697548;28;1418;-64
2022/10/17 00:42:40;;;;;;;7.03;4.70;;;;;;;15.56;100.00;100937.84;698210;28;1289;-64
2022/10/17 00:43:01;;;;;;;8.57;4.80;;;;;;;15.64;100.00;100935.03;696653;28;4572;-64
2022/10/17 00:43:21;;;;;;;8.83;5.10;;;;;;;15.80;100.00;100938.25;695188;28;1314;-64
2022/10/17 00:44:00;;;;;;;7.00;4.60;;;;;;;15.95;100.00;100927.34;695572;28;1128;-65
2022/10/17 00:44:29;;;;;;;8.75;4.80;;;;;;;16.13;100.00;100933.09;697658;28;1146;-64
2022/10/17 00:44:50;;;;;;;7.97;5.10;;;;;;;16.14;100.00;100934.81;696841;28;1209;-64
2022/10/17 00:45:16;;;;;;;7.22;4.55;;;;;;;16.08;100.00;100934.97;696079;28;1037;-63
2022/10/17 00:45:36;;;;;;;7.18;4.45;;;;;;;16.01;100.00;100934.25;697548;28;1115;-64
2022/10/17 00:45:57;;;;;;;6.93;4.53;;;;;;;15.95;100.00;100935.25;697859;28;4331;-64
2022/10/17 00:46:18;;;;;;;7.28;4.63;;;;;;;15.91;100.00;100933.59;697561;28;1099;-65
2022/10/17 00:46:39;;;;;;;6.85;4.75;;;;;;;15.92;100.00;100940.63;695201;28;1979;-66
2022/10/17 00:47:10;;;;;;;6.65;5.10;;;;;;;15.92;100.00;100940.63;695806;28;1286;-64
2022/10/17 00:47:32;;;;;;;5.60;4.22;;;;;;;15.88;100.00;100941.59;695912;28;1128;-63
2022/10/17 00:47:57;;;;;;;5.40;4.50;;;;;;;15.86;100.00;100943.38;696283;28;1277;-64
2022/10/17 00:48:19;;;;;;;6.82;4.68;;;;;;;15.85;100.00;100944.25;697510;28;1296;-64
2022/10/17 00:48:40;;;;;;;8.00;4.93;;;;;;;15.84;100.00;100934.66;700869;28;1145;-63
2022/10/17 00:49:09;;;;;;;6.30;4.68;;;;;;;15.88;100.00;100940.69;697419;28;4544;-64
2022/10/17 00:49:33;;;;;;;7.43;4.68;;;;;;;15.85;100.00;100939.00;694740;28;1282;-64
2022/10/17 00:49:53;;;;;;;7.65;4.80;;;;;;;15.88;100.00;100938.94;695004;28;1330;-65
2022/10/17 00:50:15;;;;;;;7.32;4.70;;;;;;;15.88;100.00;100943.34;695393;28;1164;-65
2022/10/17 00:50:38;;;;;;;7.05;4.60;;;;;;;15.87;100.00;100942.47;695596;28;1285;-65
2022/10/17 00:50:58;;;;;;;6.75;4.50;;;;;;;15.85;100.00;100944.25;697640;28;1095;-64
2022/10/17 00:51:28;;;;;;;5.82;4.35;;;;;;;15.83;100.00;100941.66;696172;28;1251;-64
2022/10/17 00:51:52;;;;;;;6.05;4.68;;;;;;;15.83;100.00;100943.44;698537;28;1159;-64
2022/10/17 00:52:20;;;;;;;6.95;4.82;;;;;;;15.86;100.00;100938.09;697956;28;4830;-64
2022/10/17 00:52:41;;;;;;;7.20;4.50;;;;;;;15.88;100.00;100944.22;697797;28;1242;-64
2022/10/17 00:53:04;;;;;;;7.15;4.63;;;;;;;15.88;100.00;100938.94;698531;28;1222;-65
2022/10/17 00:53:24;;;;;;;6.15;4.97;;;;;;;15.91;100.00;100938.88;697960;28;995;-64
2022/10/17 00:53:45;;;;;;;5.45;4.57;;;;;;;15.93;100.00;100942.31;697392;28;1231;-63
2022/10/17 00:54:08;;;;;;;9.15;4.68;;;;;;;15.94;100.00;100944.06;697051;28;1166;-64
2022/10/17 00:54:35;;;;;;;7.70;4.75;;;;;;;15.94;100.00;100937.94;697632;28;1240;-64
2022/10/17 00:55:00;;;;;;;6.88;4.70;;;;;;;15.91;100.00;100941.50;697044;28;4560;-64
2022/10/17 00:55:29;;;;;;;6.72;4.68;;;;;;;15.86;100.00;100934.59;699294;28;1083;-64
2022/10/17 00:55:52;;;;;;;7.88;4.82;;;;;;;15.86;100.00;100931.97;699274;28;1047;-63
2022/10/17 00:56:14;;;;;;;7.28;4.70;;;;;;;15.90;100.00;100934.50;700202;28;1030;-63
2022/10/17 00:56:34;;;;;;;10.25;5.03;;;;;;;15.98;100.00;100935.19;698635;28;1158;-64
2022/10/17 00:56:55;;;;;;;8.17;4.90;;;;;;;16.06;100.00;100924.47;700773;28;1226;-64
2022/10/17 00:57:16;;;;;;;5.53;4.72;;;;;;;16.05;100.00;100928.00;698152;28;1086;-64
2022/10/17 00:57:38;;;;;;;5.50;4.50;;;;;;;16.00;100.00;100933.41;697323;28;1122;-63
2022/10/17 00:58:02;;;;;;;8.40;4.82;;;;;;;16.03;100.00;100926.31;697630;28;4315;-64
2022/10/17 00:58:22;;;;;;;10.18;5.00;;;;;;;15.99;100.00;100931.66;698016;28;1237;-64
2022/10/17 00:58:43;;;;;;;8.43;4.47;;;;;;;15.96;100.00;100929.09;696977;28;1336;-63
2022/10/17 00:59:03;;;;;;;7.28;4.85;;;;;;;15.92;100.00;100927.44;698886;28;1157;-64
2022/10/17 00:59:24;;;;;;;6.70;4.80;;;;;;;15.89;100.00;100932.75;698829;28;995;-64
2022/10/17 00:59:51;;;;;;;7.18;4.63;;;;;;;15.85;100.00;100933.72;700354;28;1063;-63
2022/10/17 01:00:13;;;;;;;6.72;4.72;;;;;;;15.83;100.00;100930.25;697807;28;1070;-65
2022/10/17 01:00:35;;;;;;;6.70;4.68;;;;;;;15.83;100.00;100931.13;698636;28;1418;-64
2022/10/17 01:00:57;;;;;;;8.20;4.70;;;;;;;15.87;100.00;100936.31;695797;28;4769;-64
2022/10/17 01:01:18;;;;;;;6.70;4.43;;;;;;;15.85;100.00;100933.72;697021;28;1166;-65
2022/10/17 01:01:41;;;;;;;6.30;4.63;;;;;;;15.82;100.00;100936.44;697937;28;1270;-64
2022/10/17 01:02:07;;;;;;;6.50;4.50;;;;;;;15.80;100.00;100931.19;698386;28;1289;-64
2022/10/17 01:02:28;;;;;;;7.18;4.68;;;;;;;15.89;100.00;100924.84;698275;28;1118;-63
2022/10/17 01:02:48;;;;;;;7.50;4.47;;;;;;;15.87;100.00;100934.56;698359;28;816;-64
2022/10/17 01:03:10;;;;;;;8.18;4.63;;;;;;;15.87;100.00;100939.84;697746;28;2058;-65
2022/10/17 01:03:30;;;;;;;9.23;4.87;;;;;;;15.85;100.00;100933.72;695956;28;1232;-65
2022/10/17 01:03:51;;;;;;;7.82;4.78;;;;;;;15.85;100.00;100932.88;694833;28;4320;-63
2022/10/17 01:04:11;;;;;;;7.43;4.78;;;;;;;15.86;100.00;100932.81;695727;28;1228;-64
2022/10/17 01:04:37;;;;;;;7.60;5.20;;;;;;;15.87;100.00;100938.94;691716;28;1096;-64
2022/10/17 01:04:58;;;;;;;7.85;4.68;;;;;;;15.86;100.00;100935.47;693813;28;1056;-65
2022/10/17 01:05:19;;;;;;;7.03;4.82;;;;;;;15.85;100.00;100935.50;696504;28;1309;-64
2022/10/17 01:05:40;;;;;;;6.68;4.72;;;;;;;15.82;100.00;100933.78;698340;28;1185;-64
2022/10/17 01:06:00;;;;;;;6.15;4.65;;;;;;;15.78;100.00;100938.25;695444;28;1301;-64
2022/10/17 01:06:21;;;;;;;8.33;4.53;;;;;;;15.78;100.00;100940.00;695623;28;1906;-64
2022/10/17 01:06:42;;;;;;;8.80;4.50;;;;;;;15.79;100.00;100939.09;692395;28;1392;-63
2022/10/17 01:07:02;;;;;;;6.00;4.43;;;;;;;15.76;100.00;100939.19;692884;28;4455;-65
2022/10/17 01:07:23;;;;;;;6.93;4.80;;;;;;;15.83;100.00;100935.53;695515;28;1404;-64
2022/10/17 01:07:45;;;;;;;7.43;4.90;;;;;;;15.88;100.00;100940.69;696123;28;1080;-64
2022/10/17 01:08:06;;;;;;;9.00;4.90;;;;;;;16.05;100.00;100935.03;695871;28;1107;-64
2022/10/17 01:08:27;;;;;;;8.05;4.68;;;;;;;16.07;100.00;100938.50;696290;28;1338;-64
2022/10/17 01:08:47;;;;;;;6.05;4.50;;;;;;;16.04;100.00;100934.19;693091;28;1342;-65
2022/10/17 01:09:08;;;;;;;7.13;4.57;;;;;;;16.01;100.00;100931.63;692501;28;1101;-64
2022/10/17 01:09:28;;;;;;;7.20;4.80;;;;;;;15.98;100.00;100929.91;692089;28;1143;-64
2022/10/17 01:09:49;;;;;;;7.63;4.70;;;;;;;15.97;100.00;100936.09;693067;28;1064;-64
2022/10/17 01:10:11;;;;;;;9.27;4.85;;;;;;;16.05;100.00;100929.75;689735;28;4316;-64
2022/10/17 01:10:53;;;;;;;8.88;4.80;;;;;;;16.07;100.00;100934.09;690853;28;1383;-64
2022/10/17 01:11:22;;;;;;;6.68;4.70;;;;;;;16.11;100.00;100929.63;694754;28;1064;-64
2022/10/17 01:12:08;;;;;;;6.90;4.70;;;;;;;16.10;100.00;100933.16;695826;28;1285;-64
2022/10/17 01:12:40;;;;;;;6.65;4.53;;;;;;;16.04;100.00;100926.25;680590;29;1220;-64
2022/10/17 01:13:06;;;;;;;7.15;4.55;;;;;;;16.04;100.00;100928.91;696064;28;4482;-64
2022/10/17 01:13:35;;;;;;;8.45;4.72;;;;;;;16.00;100.00;100928.13;697095;28;977;-65
2022/10/17 01:14:07;;;;;;;7.07;4.60;;;;;;;16.00;100.00;100935.16;694767;28;1258;-65
2022/10/17 01:14:44;;;;;;;7.03;4.93;;;;;;;16.04;100.00;100935.97;694845;28;2336;-64
2022/10/17 01:15:04;;;;;;;7.90;4.50;;;;;;;16.10;100.00;100928.78;695788;28;912;-64
2022/10/17 01:15:28;;;;;;;8.87;4.37;;;;;;;16.11;100.00;100930.50;695108;28;1211;-64
2022/10/17 01:15:55;;;;;;;8.70;4.50;;;;;;;16.17;100.00;100935.63;694734;28;2183;-64
2022/10/17 01:16:27;;;;;;;6.00;4.65;;;;;;;16.16;100.00;100951.50;695819;28;4842;-64
2022/10/17 01:17:06;;;;;;;6.30;4.65;;;;;;;16.23;100.00;100931.97;698191;28;1178;-63
2022/10/17 01:17:39;;;;;;;8.70;4.90;;;;;;;16.26;100.00;100923.13;695178;28;1199;-64
2022/10/17 01:18:18;;;;;;;7.47;4.80;;;;;;;16.23;100.00;100933.75;693906;28;1316;-63
2022/10/17 01:18:41;;;;;;;7.82;4.75;;;;;;;16.15;100.00;100928.66;691868;28;1264;-63
2022/10/17 01:19:30;;;;;;;6.85;4.80;;;;;;;16.10;100.00;100931.41;687596;28;4583;-64
2022/10/17 01:20:25;;;;;;;6.85;4.50;;;;;;;16.16;100.00;100939.16;692869;28;1213;-64
2022/10/17 01:21:21;;;;;;;8.23;4.95;;;;;;;16.29;100.00;100939.72;697960;28;1117;-64
2022/10/17 01:21:58;;;;;;;8.00;4.80;;;;;;;16.32;100.00;100933.53;698664;28;1249;-64
2022/10/17 01:22:53;;;;;;;7.55;4.60;;;;;;;16.31;100.00;100937.06;697291;28;6267;-63
2022/10/17 01:23:40;;;;;;;6.80;4.28;;;;;;;16.26;100.00;100934.53;696876;28;1866;-64
2022/10/17 01:24:27;;;;;;;6.13;4.65;;;;;;;16.20;100.00;100939.97;697938;28;1498;-64
2022/10/17 01:24:56;;;;;;;6.30;4.57;;;;;;;16.21;100.00;100939.03;697739;28;1056;-64
2022/10/17 01:25:25;;;;;;;7.15;4.50;;;;;;;16.21;100.00;100941.69;699161;28;4845;-64
2022/10/17 01:26:05;;;;;;;6.10;4.28;;;;;;;16.17;100.00;100938.28;697425;28;1003;-64
2022/10/17 01:26:39;;;;;;;5.60;4.30;;;;;;;16.13;100.00;100941.88;697980;28;2007;-64
2022/10/17 01:27:22;;;;;;;7.65;4.75;;;;;;;16.22;100.00;100939.94;695757;28;1347;-63
2022/10/17 01:28:18;;;;;;;7.40;4.72;;;;;;;16.26;100.00;100942.44;694636;28;1538;-65
2022/10/17 01:29:03;;;;;;;9.25;4.68;;;;;;;16.34;100.00;100945.78;683862;28;4832;-65
2022/10/17 01:29:46;;;;;;;9.20;4.88;;;;;;;16.24;100.00;100939.00;691832;28;1488;-64
2022/10/17 01:30:22;;;;;;;7.00;4.55;;;;;;;16.19;100.00;100943.50;697962;28;1399;-65
2022/10/17 01:30:55;;;;;;;7.28;4.95;;;;;;;16.31;100.00;100943.22;698565;28;1277;-64
2022/10/17 01:31:21;;;;;;;8.63;4.47;;;;;;;16.37;100.00;100941.34;693608;28;5072;-65
2022/10/17 01:31:46;;;;;;;7.30;4.38;;;;;;;16.43;100.00;100943.81;692737;28;1325;-64
2022/10/17 01:32:34;;;;;;;7.07;4.60;;;;;;;16.62;100.00;100937.16;694693;28;1387;-64
2022/10/17 01:33:32;;;;;;;7.80;4.45;;;;;;;16.52;100.00;100946.22;692546;28;2125;-63
2022/10/17 01:34:02;;;;;;;7.50;4.50;;;;;;;16.44;100.00;100937.63;687511;28;4687;-63
2022/10/17 01:34:37;;;;;;;7.72;4.55;;;;;;;16.36;100.00;100939.59;690875;28;1344;-64
2022/10/17 01:35:03;;;;;;;6.38;4.47;;;;;;;16.32;100.00;100939.69;691350;28;1150;-63
2022/10/17 01:35:31;;;;;;;6.78;4.38;;;;;;;16.29;100.00;100937.09;689600;28;1500;-64
2022/10/17 01:35:58;;;;;;;6.60;4.38;;;;;;;16.25;100.00;100940.72;692036;28;1248;-63
2022/10/17 01:36:49;;;;;;;7.13;4.25;;;;;;;16.40;100.00;100935.97;692220;28;1340;-63
2022/10/17 01:37:31;;;;;;;6.68;4.18;;;;;;;16.39;100.00;100936.88;692379;28;5298;-64
2022/10/17 01:38:11;;;;;;;10.20;5.03;;;;;;;16.37;100.00;100936.06;694769;28;1443;-65
2022/10/17 01:38:54;;;;;;;6.32;4.45;;;;;;;16.45;100.00;100942.03;695258;28;1583;-64
2022/10/17 01:39:49;;;;;;;8.27;4.65;;;;;;;16.35;100.00;100941.34;697833;28;1068;-64
2022/10/17 01:40:17;;;;;;;8.10;4.38;;;;;;;16.39;100.00;100942.16;697104;28;4302;-64
2022/10/17 01:40:54;;;;;;;6.28;4.43;;;;;;;16.42;100.00;100937.69;694355;28;1414;-63
2022/10/17 01:41:28;;;;;;;6.55;4.60;;;;;;;16.43;100.00;100941.19;694713;28;1064;-64
2022/10/17 01:41:56;;;;;;;5.82;4.55;;;;;;;16.34;100.00;100932.56;692926;28;1372;-65
2022/10/17 01:42:17;;;;;;;5.90;4.22;;;;;;;16.28;100.00;100938.03;694915;28;1122;-65
2022/10/17 01:43:06;;;;;;;7.77;4.40;;;;;;;16.22;100.00;100930.25;695116;28;1206;-64
2022/10/17 01:44:08;;;;;;;6.47;4.40;;;;;;;16.16;100.00;100938.31;694989;28;4987;-64
2022/10/17 01:44:41;;;;;;;9.20;4.45;;;;;;;16.23;100.00;100937.25;696400;28;1324;-65
2022/10/17 01:45:01;;;;;;;6.80;4.50;;;;;;;16.26;100.00;100931.91;694903;28;1239;-63
2022/10/17 01:45:36;;;;;;;5.60;4.40;;;;;;;16.20;100.00;100929.41;695159;28;1702;-64
2022/10/17 01:46:11;;;;;;;7.10;4.40;;;;;;;16.15;100.00;100932.16;690317;28;4410;-64
2022/10/17 01:46:36;;;;;;;6.50;4.45;;;;;;;16.09;100.00;100927.03;691661;28;1922;-65
2022/10/17 01:47:09;;;;;;;6.30;4.50;;;;;;;16.11;100.00;100929.63;688342;28;1335;-65
2022/10/17 01:47:32;;;;;;;6.88;4.80;;;;;;;16.10;100.00;100928.78;692616;28;1257;-64
2022/10/17 01:47:59;;;;;;;6.00;4.65;;;;;;;16.10;100.00;100927.88;692623;28;1739;-65
2022/10/17 01:48:24;;;;;;;5.70;4.60;;;;;;;16.11;100.00;100925.22;689111;28;2150;-63
2022/10/17 01:48:45;;;;;;;6.40;4.30;;;;;;;16.13;100.00;100927.81;693170;28;1214;-63
2022/10/17 01:49:08;;;;;;;5.47;4.50;;;;;;;16.15;100.00;100923.38;691835;28;4367;-64
2022/10/17 01:49:31;;;;;;;6.65;4.50;;;;;;;16.16;100.00;100927.75;692468;28;2014;-63
2022/10/17 01:49:56;;;;;;;6.20;4.25;;;;;;;16.13;100.00;100928.69;692251;28;1331;-64
2022/10/17 01:50:29;;;;;;;6.20;4.53;;;;;;;16.10;100.00;100917.34;690305;28;2239;-64
2022/10/17 01:51:00;;;;;;;7.20;4.82;;;;;;;16.13;100.00;100930.44;691633;28;1293;-63
2022/10/17 01:51:27;;;;;;;7.18;4.88;;;;;;;16.16;100.00;100925.13;693357;28;1285;-64
2022/10/17 01:51:54;;;;;;;7.30;4.78;;;;;;;16.17;100.00;100921.56;694076;28;1783;-63
2022/10/17 01:52:22;;;;;;;6.38;4.47;;;;;;;16.15;100.00;100920.75;696421;28;5019;-65
2022/10/17 01:52:51;;;;;;;6.57;4.40;;;;;;;16.12;100.00;100931.38;698302;28;1377;-64
2022/10/17 01:53:34;;;;;;;7.40;4.50;;;;;;;16.09;100.00;100932.31;693818;28;1399;-63
2022/10/17 01:54:12;;;;;;;7.32;4.60;;;;;;;16.08;100.00;100935.84;697899;28;1197;-64
2022/10/17 01:54:41;;;;;;;7.65;4.47;;;;;;;16.08;100.00;100930.56;694925;28;989;-64
2022/10/17 01:55:25;;;;;;;7.18;4.53;;;;;;;16.21;100.00;100931.13;694686;28;4447;-64
2022/10/17 01:55:48;;;;;;;6.45;4.60;;;;;;;16.26;100.00;100921.34;695925;28;1150;-63
2022/10/17 01:56:15;;;;;;;6.55;4.32;;;;;;;16.28;100.00;100927.47;695254;28;1285;-64
2022/10/17 01:56:38;;;;;;;8.38;4.50;;;;;;;16.43;100.00;100927.97;693535;28;1227;-64
2022/10/17 01:57:05;;;;;;;7.18;4.50;;;;;;;16.36;100.00;100929.03;693539;28;1394;-64
2022/10/17 01:57:45;;;;;;;6.68;4.30;;;;;;;16.29;100.00;100930.97;694936;28;1422;-64
2022/10/17 01:58:13;;;;;;;7.32;4.65;;;;;;;16.27;100.00;100925.72;690671;28;5244;-64
2022/10/17 01:58:43;;;;;;;6.72;4.40;;;;;;;16.25;100.00;100927.50;692991;28;1262;-63
2022/10/17 01:59:12;;;;;;;6.15;4.28;;;;;;;16.26;100.00;100923.97;693874;28;1299;-64
2022/10/17 01:59:40;;;;;;;7.20;4.53;;;;;;;16.38;100.00;100927.22;698099;28;1429;-64
2022/10/17 02:00:04;;;;;;;8.57;4.63;;;;;;;16.37;100.00;100920.22;693765;28;1251;-63
2022/10/17 02:00:34;;;;;;;7.45;4.57;;;;;;;16.54;100.00;100920.66;692456;28;1048;-64